Ana Sayfa
METAR-TAF:

METAR-TAF

Havaalanları :

Ada, Oklahoma, Amerika Birleşik Devletleri

Enlem: 34-48-16N, Boylam: 096-40-17W, yükseklik: 310 m

Güncel hava durumu gözlemi

Rapor saat 18:55 UTC de 33 dakika önce yapıldı.
Rüzgar batıdan 11 kt
Sıcaklık 11°C
Nem 76%
Basınç 1005 hPa
Görüş mesafesi: 16.1 km
1300 ft yükseklikte çok bulutlu

METAR: KADH 241855Z AUTO 28011KT 10SM OVC013 11/07 A2969 RMK AO2

Saat: 13:28 (19:28 UTC)


TAF: eksik

4.000'den fazla havaalanı için hava durumu gözlemleri ve tahminleri (METAR ve TAF raporları).

Kullanılabilir istasyonlar harita üzerinde sarı ve kırmızı noktalarla gösterilir.

İstasyonun adını görmek için fareyi noktanın üzerinde gezdirin.

Sonrasında hava gözlem ve tahminlerini görmek için tıklayın.

Haritayı değiştirmek için: yaklaştırmak için siyah artı işaretli yeşil düğmeye ve uzaklaştırmak için de eksi işaretli düğmeye hızla tıklayın; bitişik haritalar için yeşil okları kullanın.


METAR-TAF: